createdAt,value
2022-09-26T00:01:33.306Z,2.43
2022-09-26T00:04:03.250Z,2.10
2022-09-26T00:06:32.070Z,2.23
2022-09-26T00:09:00.158Z,1.77
2022-09-26T00:11:29.661Z,1.97
2022-09-26T00:13:59.909Z,1.93
2022-09-26T00:16:27.941Z,1.60
2022-09-26T00:18:57.726Z,1.67
2022-09-26T00:21:26.655Z,1.73
2022-09-26T00:23:56.344Z,1.60
2022-09-26T00:26:25.524Z,1.70
2022-09-26T00:28:53.458Z,2.10
2022-09-26T00:31:24.484Z,2.00
2022-09-26T00:33:52.183Z,1.87
2022-09-26T00:36:19.971Z,1.70
2022-09-26T00:38:47.698Z,1.70
2022-09-26T00:41:17.053Z,1.60
2022-09-26T00:43:46.296Z,1.70
2022-09-26T00:46:24.238Z,1.77
2022-09-26T00:48:56.504Z,1.70
2022-09-26T00:51:23.966Z,1.47
2022-09-26T00:53:54.004Z,1.50
2022-09-26T00:56:30.014Z,1.47
2022-09-26T00:59:03.298Z,1.23
2022-09-26T01:01:30.779Z,1.60
2022-09-26T01:03:59.604Z,1.43
2022-09-26T01:06:27.228Z,1.20
2022-09-26T01:08:58.082Z,1.90
2022-09-26T01:11:27.651Z,2.37
2022-09-26T01:13:55.627Z,2.20
2022-09-26T01:16:23.880Z,2.20
2022-09-26T01:18:51.539Z,2.37
2022-09-26T01:21:55.770Z,2.60
2022-09-26T01:24:49.112Z,2.07
2022-09-26T01:27:37.693Z,2.20
2022-09-26T01:30:12.527Z,1.80
2022-09-26T01:32:57.594Z,2.00
2022-09-26T01:35:37.541Z,1.90
2022-09-26T01:38:15.086Z,1.90
2022-09-26T01:40:46.002Z,1.83
2022-09-26T01:43:23.578Z,1.70
2022-09-26T01:45:57.846Z,2.10
2022-09-26T01:48:32.140Z,2.07
2022-09-26T01:51:05.980Z,2.43
2022-09-26T01:53:40.956Z,1.90
2022-09-26T01:56:14.483Z,2.33
2022-09-26T01:58:46.906Z,2.10
2022-09-26T02:01:17.306Z,1.97
2022-09-26T02:03:48.475Z,2.03
2022-09-26T02:06:20.135Z,2.03
2022-09-26T02:08:52.218Z,2.13
2022-09-26T02:11:20.892Z,2.20
2022-09-26T02:13:52.811Z,1.97
2022-09-26T02:16:27.157Z,1.97
2022-09-26T02:18:58.513Z,2.40
2022-09-26T02:21:26.312Z,2.20
2022-09-26T02:23:54.978Z,2.33
2022-09-26T02:26:24.223Z,2.40
2022-09-26T02:28:51.731Z,2.63
2022-09-26T02:31:24.538Z,2.60
2022-09-26T02:33:53.016Z,2.40
2022-09-26T02:36:21.900Z,2.30
2022-09-26T02:38:49.770Z,2.13
2022-09-26T02:41:25.691Z,2.10
2022-09-26T02:44:24.110Z,2.17
2022-09-26T02:47:11.514Z,1.83
2022-09-26T02:50:02.102Z,2.13
2022-09-26T02:52:38.841Z,2.00
2022-09-26T02:55:16.083Z,2.10
2022-09-26T02:57:53.413Z,1.70
2022-09-26T03:00:24.892Z,1.90
2022-09-26T03:02:58.993Z,2.00
2022-09-26T03:05:30.298Z,1.80
2022-09-26T03:08:02.145Z,1.93
2022-09-26T03:10:32.795Z,1.80
2022-09-26T03:13:05.850Z,1.73
2022-09-26T03:15:35.422Z,2.10
2022-09-26T03:18:08.948Z,1.90
2022-09-26T03:20:36.723Z,2.20
2022-09-26T03:23:05.022Z,1.40
2022-09-26T03:25:33.394Z,1.43
2022-09-26T03:28:02.160Z,1.60
2022-09-26T03:30:30.591Z,1.70
2022-09-26T03:32:57.998Z,1.47
2022-09-26T03:35:26.793Z,1.90
2022-09-26T03:37:54.211Z,1.70
2022-09-26T03:40:21.656Z,2.07
2022-09-26T03:42:50.105Z,1.73
2022-09-26T03:45:17.512Z,1.97
2022-09-26T03:47:44.978Z,1.80
2022-09-26T03:50:14.913Z,1.73
2022-09-26T03:52:43.687Z,1.90
2022-09-26T03:55:11.366Z,2.07
2022-09-26T03:57:38.780Z,1.87
2022-09-26T04:00:07.966Z,2.10
2022-09-26T04:02:35.643Z,1.83
2022-09-26T04:05:03.083Z,2.00
2022-09-26T04:07:30.569Z,2.00
2022-09-26T04:09:59.350Z,2.10
2022-09-26T04:12:26.976Z,2.40
2022-09-26T04:14:54.391Z,2.37
2022-09-26T04:17:21.826Z,2.73
2022-09-26T04:19:49.293Z,3.43
2022-09-26T04:22:16.695Z,3.40
2022-09-26T04:24:44.498Z,3.70
2022-09-26T04:27:13.260Z,4.27
2022-09-26T04:29:40.702Z,4.27
2022-09-26T04:32:08.102Z,4.20
2022-09-26T04:34:38.252Z,3.93
2022-09-26T04:37:05.786Z,4.13
2022-09-26T04:39:35.868Z,4.07
2022-09-26T04:42:03.294Z,3.90
2022-09-26T04:44:32.679Z,4.00
2022-09-26T04:47:00.130Z,3.83
2022-09-26T04:49:29.414Z,3.60
2022-09-26T04:51:56.870Z,3.50
2022-09-26T04:54:24.263Z,3.50
2022-09-26T04:56:51.666Z,3.33
2022-09-26T04:59:20.206Z,3.40
2022-09-26T05:01:48.992Z,3.00
2022-09-26T05:04:16.403Z,2.90
2022-09-26T05:06:43.815Z,2.80
2022-09-26T05:09:11.349Z,3.00
2022-09-26T05:11:38.887Z,2.83
2022-09-26T05:14:08.740Z,3.00
2022-09-26T05:16:37.073Z,2.93
2022-09-26T05:19:05.979Z,3.00
2022-09-26T05:21:33.405Z,3.10
2022-09-26T05:24:18.339Z,2.87
2022-09-26T05:26:48.526Z,3.43
2022-09-26T05:29:17.368Z,3.33
2022-09-26T05:31:45.835Z,3.10
2022-09-26T05:34:19.422Z,3.10
2022-09-26T05:36:47.716Z,3.23
2022-09-26T05:39:33.285Z,3.00
2022-09-26T05:42:00.914Z,3.00
2022-09-26T05:44:29.666Z,3.20
2022-09-26T05:46:57.667Z,3.20
2022-09-26T05:49:27.651Z,3.23
2022-09-26T05:51:55.226Z,3.30
2022-09-26T05:54:22.731Z,3.30
2022-09-26T05:56:50.155Z,3.50
2022-09-26T05:59:18.710Z,3.30
2022-09-26T06:01:47.260Z,3.43
2022-09-26T06:04:14.722Z,3.03
2022-09-26T06:06:44.113Z,3.50
2022-09-26T06:09:11.744Z,2.97
2022-09-26T06:11:39.257Z,3.40
2022-09-26T06:14:08.079Z,3.23
2022-09-26T06:16:35.605Z,3.53
2022-09-26T06:19:03.107Z,3.63
2022-09-26T06:21:30.700Z,3.83
2022-09-26T06:23:59.741Z,3.90
2022-09-26T06:26:28.738Z,4.47
2022-09-26T06:29:00.012Z,4.47
2022-09-26T06:31:28.010Z,4.60
2022-09-26T06:33:55.615Z,4.93
2022-09-26T06:36:24.534Z,4.67
2022-09-26T06:38:54.888Z,4.70
2022-09-26T06:41:25.882Z,5.20
2022-09-26T06:43:53.299Z,4.57
2022-09-26T06:46:21.079Z,4.37
2022-09-26T06:48:48.546Z,4.87
2022-09-26T06:51:15.978Z,4.80
2022-09-26T06:53:45.994Z,4.50
2022-09-26T06:56:13.518Z,4.63
2022-09-26T06:58:42.884Z,4.93
2022-09-26T07:01:11.292Z,5.10
2022-09-26T07:03:44.453Z,5.30
2022-09-26T07:06:13.891Z,5.13
2022-09-26T07:09:01.480Z,5.33
2022-09-26T07:11:38.127Z,5.50
2022-09-26T07:14:16.648Z,5.57
2022-09-26T07:16:44.411Z,5.60
2022-09-26T07:19:13.196Z,6.73
2022-09-26T07:21:40.790Z,10.47
2022-09-26T07:24:13.802Z,24.00
2022-09-26T07:26:41.667Z,20.70
2022-09-26T07:29:09.156Z,11.53
2022-09-26T07:31:38.007Z,9.67
2022-09-26T07:34:05.694Z,8.30
2022-09-26T07:36:33.110Z,7.70
2022-09-26T07:39:01.075Z,7.00
2022-09-26T07:41:31.233Z,6.87
2022-09-26T07:47:05.186Z,6.03
2022-09-26T07:49:50.596Z,6.60
2022-09-26T07:52:20.517Z,5.90
2022-09-26T07:54:47.930Z,6.03
2022-09-26T07:57:15.514Z,6.67
2022-09-26T07:59:42.906Z,6.03
2022-09-26T08:02:22.339Z,5.97
2022-09-26T08:04:50.132Z,5.97
2022-09-26T08:07:17.551Z,6.67
2022-09-26T08:09:44.960Z,6.00
2022-09-26T08:12:14.745Z,6.90
2022-09-26T08:14:42.163Z,8.00
2022-09-26T08:17:13.498Z,7.87
2022-09-26T08:19:43.299Z,7.77
2022-09-26T08:22:11.250Z,8.73
2022-09-26T08:24:39.273Z,7.70
2022-09-26T08:27:07.621Z,6.83
2022-09-26T08:29:35.089Z,7.27
2022-09-26T08:32:03.274Z,6.03
2022-09-26T08:34:32.030Z,6.33
2022-09-26T08:37:00.844Z,6.53
2022-09-26T08:39:33.148Z,7.93
2022-09-26T08:42:12.160Z,5.83
2022-09-26T08:45:25.598Z,5.63
2022-09-26T08:47:59.263Z,5.47
2022-09-26T08:50:33.178Z,4.90
2022-09-26T08:53:07.243Z,4.73
2022-09-26T08:55:40.837Z,4.20
2022-09-26T08:58:16.543Z,4.00
2022-09-26T09:00:45.603Z,4.00
2022-09-26T09:03:23.901Z,3.90
2022-09-26T09:05:56.847Z,4.03
2022-09-26T09:08:35.918Z,3.77
2022-09-26T09:11:16.071Z,3.33
2022-09-26T09:13:56.222Z,3.15
2022-09-26T09:16:36.557Z,3.35
2022-09-26T09:19:15.233Z,3.17
2022-09-26T09:21:56.373Z,3.20
2022-09-26T09:24:37.534Z,2.90
2022-09-26T09:30:19.531Z,2.70
2022-09-26T09:32:55.441Z,2.63
2022-09-26T09:35:38.204Z,3.30
2022-09-26T09:38:07.772Z,2.80
2022-09-26T09:40:40.906Z,2.90
2022-09-26T09:43:15.127Z,2.83
2022-09-26T09:45:46.838Z,2.60
2022-09-26T09:48:16.013Z,2.40
2022-09-26T09:50:55.757Z,2.53
2022-09-26T09:53:35.251Z,2.45
2022-09-26T09:56:14.863Z,2.25
2022-09-26T09:59:03.513Z,2.33
2022-09-26T10:01:35.170Z,2.50
2022-09-26T10:04:08.058Z,1.95
2022-09-26T10:06:45.693Z,2.10
2022-09-26T10:09:38.829Z,2.00
2022-09-26T10:12:16.095Z,1.75
2022-09-26T10:14:50.917Z,1.73
2022-09-26T10:17:22.970Z,1.60
2022-09-26T10:19:50.959Z,1.80
2022-09-26T10:22:25.050Z,1.67
2022-09-26T10:24:59.981Z,2.08
2022-09-26T10:27:37.605Z,1.92
2022-09-26T10:30:21.143Z,1.90
2022-09-26T10:32:56.037Z,1.92
2022-09-26T10:35:26.126Z,1.70
2022-09-26T10:38:00.669Z,1.50
2022-09-26T10:40:45.956Z,1.67
2022-09-26T10:43:28.516Z,1.70
2022-09-26T10:46:05.894Z,2.03
2022-09-26T10:48:47.957Z,1.67
2022-09-26T10:51:21.899Z,1.53
2022-09-26T10:53:53.007Z,1.47
2022-09-26T10:56:26.550Z,1.30
2022-09-26T10:58:59.383Z,1.60
2022-09-26T11:01:30.074Z,1.40
2022-09-26T11:04:01.438Z,1.10
2022-09-26T11:06:32.448Z,1.20
2022-09-26T11:09:03.310Z,1.20
2022-09-26T11:11:35.117Z,1.20
2022-09-26T11:14:07.351Z,1.10
2022-09-26T11:16:50.157Z,1.33
2022-09-26T11:19:29.686Z,1.03
2022-09-26T11:22:07.381Z,1.00
2022-09-26T11:24:45.951Z,1.10
2022-09-26T11:27:23.483Z,1.20
2022-09-26T11:29:58.822Z,1.20
2022-09-26T11:32:30.973Z,1.20
2022-09-26T11:35:02.501Z,1.30
2022-09-26T11:37:50.633Z,1.10
2022-09-26T11:40:32.114Z,1.27
2022-09-26T11:43:15.670Z,1.60
2022-09-26T11:46:04.103Z,1.40
2022-09-26T11:48:55.446Z,1.70
2022-09-26T11:51:40.872Z,1.40
2022-09-26T11:54:26.533Z,1.37
2022-09-26T11:57:11.466Z,1.60
2022-09-26T11:59:54.774Z,1.60
2022-09-26T12:03:04.941Z,1.60
2022-09-26T12:05:48.359Z,1.70
2022-09-26T12:08:37.753Z,1.90
2022-09-26T12:11:17.164Z,1.77
2022-09-26T12:13:54.739Z,1.70
2022-09-26T12:16:27.927Z,1.90
2022-09-26T12:19:05.324Z,1.60
2022-09-26T12:21:42.309Z,1.90
2022-09-26T12:24:17.927Z,1.90
2022-09-26T12:26:51.633Z,1.93
2022-09-26T12:29:33.014Z,1.70
2022-09-26T12:32:18.875Z,1.70
2022-09-26T12:35:14.554Z,1.60
2022-09-26T12:37:53.857Z,1.60
2022-09-26T12:40:34.254Z,1.57
2022-09-26T12:43:21.575Z,1.53
2022-09-26T12:46:07.750Z,1.70
2022-09-26T12:48:49.022Z,1.60
2022-09-26T12:51:28.564Z,1.70
2022-09-26T12:54:21.395Z,1.57
2022-09-26T12:56:54.478Z,1.80
2022-09-26T12:59:39.422Z,1.60
2022-09-26T13:02:33.407Z,1.57
2022-09-26T13:05:20.991Z,1.33
2022-09-26T13:07:58.367Z,1.27
2022-09-26T13:10:35.627Z,1.50
2022-09-26T13:13:24.670Z,1.50
2022-09-26T13:16:13.074Z,1.17
2022-09-26T13:18:46.079Z,1.10
2022-09-26T13:21:18.970Z,1.10
2022-09-26T13:23:55.485Z,1.20
2022-09-26T13:26:28.954Z,0.97
2022-09-26T13:29:16.714Z,1.10
2022-09-26T13:31:48.219Z,1.00
2022-09-26T13:34:21.369Z,1.00
2022-09-26T13:36:50.068Z,1.10
2022-09-26T13:39:29.484Z,1.20
2022-09-26T13:42:02.564Z,1.00
2022-09-26T13:44:46.202Z,1.20
2022-09-26T13:47:22.341Z,1.00
2022-09-26T13:50:03.030Z,1.00
2022-09-26T13:52:40.781Z,1.10
2022-09-26T13:55:16.393Z,1.30
2022-09-26T13:57:51.227Z,1.30
2022-09-26T14:00:48.930Z,1.37
2022-09-26T14:03:38.608Z,1.17
2022-09-26T14:06:31.786Z,1.20
2022-09-26T14:09:25.739Z,1.10
2022-09-26T14:12:19.968Z,1.30
2022-09-26T14:15:07.091Z,1.30
2022-09-26T14:18:15.268Z,1.37
2022-09-26T14:20:59.071Z,1.50
2022-09-26T14:23:42.055Z,1.23
2022-09-26T14:26:12.532Z,1.57
2022-09-26T14:28:48.257Z,1.60
2022-09-26T14:31:38.425Z,1.50
2022-09-26T14:34:22.630Z,1.60
2022-09-26T14:36:52.216Z,1.47
2022-09-26T14:39:33.260Z,1.50
2022-09-26T14:42:09.960Z,1.47
2022-09-26T14:44:39.168Z,1.70
2022-09-26T14:47:14.064Z,1.40
2022-09-26T14:49:41.800Z,1.30
2022-09-26T14:52:19.059Z,1.60
2022-09-26T14:54:48.211Z,1.40
2022-09-26T14:57:23.058Z,1.60
2022-09-26T14:59:52.170Z,1.40
2022-09-26T15:02:46.341Z,1.50
2022-09-26T15:05:23.258Z,1.50
2022-09-26T15:07:52.887Z,1.30
2022-09-26T15:10:27.166Z,1.50
2022-09-26T15:13:00.208Z,1.70
2022-09-26T15:15:38.643Z,1.40
2022-09-26T15:18:10.258Z,1.20
2022-09-26T15:20:43.333Z,1.40
2022-09-26T15:23:23.219Z,1.17
2022-09-26T15:25:54.087Z,1.23
2022-09-26T15:28:24.121Z,1.20
2022-09-26T15:31:25.859Z,1.30
2022-09-26T15:33:59.499Z,1.13
2022-09-26T15:36:30.251Z,1.20
2022-09-26T15:38:59.324Z,1.20
2022-09-26T15:41:40.987Z,1.20
2022-09-26T15:44:09.931Z,1.27
2022-09-26T15:46:38.876Z,1.30
2022-09-26T15:49:14.391Z,1.20
2022-09-26T15:51:44.295Z,1.50
2022-09-26T15:54:21.694Z,1.40
2022-09-26T15:56:51.626Z,1.30
2022-09-26T15:59:24.379Z,1.40
2022-09-26T16:01:53.925Z,1.47
2022-09-26T16:04:23.220Z,1.20
2022-09-26T16:06:57.826Z,1.37
2022-09-26T16:09:31.771Z,1.20
2022-09-26T16:12:01.705Z,1.30
2022-09-26T16:14:37.639Z,1.40
2022-09-26T16:17:18.610Z,1.13
2022-09-26T16:19:48.651Z,1.10
2022-09-26T16:22:40.235Z,1.30
2022-09-26T16:25:52.958Z,1.20
2022-09-26T16:28:39.298Z,1.00
2022-09-26T16:31:17.751Z,1.20
2022-09-26T16:33:52.116Z,1.10
2022-09-26T16:36:21.935Z,1.17
2022-09-26T16:38:54.954Z,1.20
2022-09-26T16:41:56.215Z,1.07
2022-09-26T16:44:27.524Z,1.10
2022-09-26T16:47:02.352Z,1.20
2022-09-26T16:49:42.777Z,1.30
2022-09-26T16:52:34.282Z,1.37
2022-09-26T16:55:05.824Z,1.30
2022-09-26T16:57:36.308Z,1.20
2022-09-26T17:00:26.029Z,1.20
2022-09-26T17:02:53.580Z,1.40
2022-09-26T17:05:22.798Z,1.17
2022-09-26T17:07:51.147Z,1.10
2022-09-26T17:10:21.729Z,1.00
2022-09-26T17:12:51.358Z,1.10
2022-09-26T17:15:23.326Z,1.20
2022-09-26T17:17:53.460Z,1.00
2022-09-26T17:20:23.443Z,1.10
2022-09-26T17:22:51.073Z,1.17
2022-09-26T17:25:19.735Z,1.10
2022-09-26T17:27:50.631Z,1.20
2022-09-26T17:30:19.979Z,1.07
2022-09-26T17:32:49.833Z,0.90
2022-09-26T17:35:23.767Z,0.90
2022-09-26T17:37:52.248Z,1.13
2022-09-26T17:40:23.890Z,1.10
2022-09-26T17:42:52.342Z,1.03
2022-09-26T17:45:20.080Z,1.10
2022-09-26T17:47:48.096Z,1.00
2022-09-26T17:50:24.319Z,1.10
2022-09-26T17:52:54.499Z,1.20
2022-09-26T17:55:24.120Z,1.10
2022-09-26T17:57:51.765Z,1.37
2022-09-26T18:00:20.085Z,1.30
2022-09-26T18:02:50.144Z,1.40
2022-09-26T18:05:20.826Z,1.40
2022-09-26T18:07:52.237Z,1.30
2022-09-26T18:10:23.905Z,1.27
2022-09-26T18:12:57.201Z,1.17
2022-09-26T18:15:25.762Z,1.10
2022-09-26T18:17:53.819Z,1.20
2022-09-26T18:20:25.034Z,1.20
2022-09-26T18:22:53.154Z,1.13
2022-09-26T18:25:24.895Z,1.07
2022-09-26T18:27:56.781Z,1.10
2022-09-26T18:30:25.274Z,1.13
2022-09-26T18:32:56.259Z,1.10
2022-09-26T18:35:25.682Z,0.80
2022-09-26T18:37:55.154Z,1.10
2022-09-26T18:40:26.712Z,1.10
2022-09-26T18:42:55.832Z,1.10
2022-09-26T18:45:28.556Z,0.97
2022-09-26T18:47:56.941Z,1.37
2022-09-26T18:50:30.212Z,1.13
2022-09-26T18:52:57.743Z,1.27
2022-09-26T18:55:45.230Z,1.20
2022-09-26T18:58:27.536Z,1.40
2022-09-26T19:00:57.807Z,1.50
2022-09-26T19:03:28.794Z,1.37
2022-09-26T19:06:02.846Z,1.10
2022-09-26T19:08:33.933Z,1.20
2022-09-26T19:11:06.910Z,1.23
2022-09-26T19:13:34.414Z,1.10
2022-09-26T19:16:02.148Z,1.10
2022-09-26T19:18:29.691Z,1.20
2022-09-26T19:20:57.744Z,1.10
2022-09-26T19:23:29.486Z,1.00
2022-09-26T19:25:57.023Z,1.17
2022-09-26T19:28:28.895Z,1.13
2022-09-26T19:30:56.949Z,1.10
2022-09-26T19:33:25.094Z,1.10
2022-09-26T19:35:53.031Z,1.03
2022-09-26T19:38:22.299Z,0.97
2022-09-26T19:40:51.279Z,1.10
2022-09-26T19:43:19.160Z,1.10
2022-09-26T19:45:51.862Z,1.20
2022-09-26T19:48:22.227Z,1.20
2022-09-26T19:50:52.332Z,1.10
2022-09-26T19:53:22.188Z,1.07
2022-09-26T19:55:50.418Z,1.27
2022-09-26T19:58:19.813Z,1.20
2022-09-26T20:00:51.058Z,1.20
2022-09-26T20:03:20.500Z,1.47
2022-09-26T20:05:49.535Z,1.40
2022-09-26T20:08:19.278Z,1.47
2022-09-26T20:10:47.944Z,1.40
2022-09-26T20:13:15.965Z,1.30
2022-09-26T20:15:44.423Z,1.60
2022-09-26T20:18:17.285Z,1.53
2022-09-26T20:20:48.255Z,1.40
2022-09-26T20:23:19.956Z,1.33
2022-09-26T20:25:47.628Z,1.40
2022-09-26T20:28:15.741Z,1.60
2022-09-26T20:30:52.526Z,1.50
2022-09-26T20:33:22.726Z,1.10
2022-09-26T20:35:57.714Z,1.20
2022-09-26T20:38:31.004Z,1.30
2022-09-26T20:41:05.443Z,1.40
2022-09-26T20:43:38.499Z,1.40
2022-09-26T20:46:07.393Z,1.20
2022-09-26T20:48:37.983Z,1.50
2022-09-26T20:51:07.971Z,1.37
2022-09-26T20:53:35.486Z,1.40
2022-09-26T20:56:03.754Z,1.37
2022-09-26T20:58:31.317Z,1.40
2022-09-26T21:00:59.584Z,1.50
2022-09-26T21:03:28.033Z,1.37
2022-09-26T21:05:56.930Z,1.60
2022-09-26T21:08:27.442Z,1.47
2022-09-26T21:10:55.883Z,1.50
2022-09-26T21:13:23.492Z,1.20
2022-09-26T21:15:53.282Z,1.30
2022-09-26T21:18:26.402Z,1.30
2022-09-26T21:20:54.863Z,1.50
2022-09-26T21:23:24.191Z,1.53
2022-09-26T21:25:51.887Z,1.30
2022-09-26T21:28:26.222Z,1.40
2022-09-26T21:30:55.621Z,1.37
2022-09-26T21:33:23.641Z,1.37
2022-09-26T21:35:51.655Z,1.30
2022-09-26T21:38:21.292Z,1.40
2022-09-26T21:40:54.997Z,1.20
2022-09-26T21:43:26.794Z,1.30
2022-09-26T21:45:54.383Z,1.30
2022-09-26T21:48:22.438Z,1.30
2022-09-26T21:50:57.672Z,1.50
2022-09-26T21:53:29.330Z,1.40
2022-09-26T21:56:06.592Z,1.17
2022-09-26T21:58:38.884Z,1.20
2022-09-26T22:01:06.579Z,1.30
2022-09-26T22:03:34.618Z,1.40
2022-09-26T22:06:07.138Z,1.50
2022-09-26T22:08:35.277Z,1.40
2022-09-26T22:11:04.871Z,1.17
2022-09-26T22:13:32.890Z,1.40
2022-09-26T22:16:06.020Z,1.20
2022-09-26T22:18:33.983Z,1.27
2022-09-26T22:21:04.622Z,1.47
2022-09-26T22:23:32.382Z,1.20
2022-09-26T22:25:59.919Z,1.30
2022-09-26T22:28:29.400Z,1.30
2022-09-26T22:31:01.610Z,1.20
2022-09-26T22:33:29.777Z,1.30
2022-09-26T22:35:57.438Z,1.20
2022-09-26T22:38:25.155Z,1.50
2022-09-26T22:41:03.707Z,1.20
2022-09-26T22:43:34.002Z,1.27
2022-09-26T22:46:03.060Z,1.30
2022-09-26T22:48:32.512Z,1.20
2022-09-26T22:51:00.470Z,1.20
2022-09-26T22:53:28.010Z,1.30
2022-09-26T22:55:57.475Z,1.30
2022-09-26T22:58:26.574Z,1.20
2022-09-26T23:00:55.625Z,1.30
2022-09-26T23:03:23.240Z,1.20
2022-09-26T23:05:50.971Z,1.30
2022-09-26T23:08:18.534Z,1.10
2022-09-26T23:10:50.008Z,1.10
2022-09-26T23:13:17.662Z,0.90
2022-09-26T23:15:46.247Z,1.20
2022-09-26T23:18:15.451Z,1.17
2022-09-26T23:20:43.944Z,1.10
2022-09-26T23:23:13.909Z,1.13
2022-09-26T23:25:46.514Z,1.20
2022-09-26T23:28:14.444Z,1.17
2022-09-26T23:30:42.456Z,0.90
2022-09-26T23:33:10.438Z,1.10
2022-09-26T23:35:40.254Z,1.07
2022-09-26T23:38:07.899Z,1.07
2022-09-26T23:40:38.243Z,0.90
2022-09-26T23:43:05.814Z,0.97
2022-09-26T23:45:33.329Z,0.90
2022-09-26T23:48:01.089Z,0.90
2022-09-26T23:50:28.579Z,0.90
2022-09-26T23:52:58.080Z,1.00
2022-09-26T23:55:25.723Z,0.90
2022-09-26T23:57:53.227Z,0.90
